NWWW METAR and TAF weather

Enter ICAO airport designator
Station Type Date Time Source
NWWW METAR 2019/06/26 18:00 UTC NOAA

NWWW 261800Z AUTO 01003KT CAVOK 19/17 Q1017 TEMPO BKN014


Station Type Date Time Source
NWWW Decoded METAR 2019/06/26 18:00 UTC NOAA

La Tontouta Nlle-Caledonie , New Caledonia (NWWW) 22-01S 166-13E 14M
Jun 26, 2019 - 02:00 PM EDT / 2019.06.26 1800 UTC
Wind: from the N (010 degrees) at 3 MPH (3 KT):0
Visibility: greater than 7 mile(s):0
Temperature: 66 F (19 C)
Dew Point: 62 F (17 C)
Relative Humidity: 88%
Pressure (altimeter): 30.03 in. Hg (1017 hPa)
ob: NWWW 261800Z AUTO 01003KT CAVOK 19/17 Q1017 TEMPO BKN014
cycle: 18

Station Type Date Time Source
NWWW TAF 2019/06/26 18:06 UTC NOAA

TAF NWWW 261700Z 2618/2718 VRB02KT 9999 FEW010 BKN150 PROB30
TEMPO 2618/2624 -RA BKN014
BECMG 2623/2702 13010KT 4000 RA BKN008 PROB40
TEMPO 2703/2712 2500 +RA FEW015TCU

Example: see airport list